EmailTwitter


Observations de surface / France / LFBO (07630)

Régions: Québec | Canada | États-Unis | Europe | France | UK | Elsewhere
Station
Affichage
Infos & localisation pour LFBO (07630) | Aide pour décoder les METARs

Observations prises le 2017-05-30 à 05H00 UTC à TOULOUSE/BLAGNAC, FR (LFBO)

Etat du ciel: partiellement nuageux.

Température: 17.0 Celsius

Point de rosée: 16.0 Celsius

Humidité relative: 94%

Indice Humidex: 22.

Vents: Ouest à 6 km/h ou 3 noeuds.

Pression au niveau moyen de la mer: 101.60 kilopascals.

Visibilité horizontale: 6.21 milles terrestres ou 9.94 kilomètres.

Hauteur du plafond: 457 mètres ( 1500 pieds ).

Observation METAR:

LFBO 300500Z AUTO 28003KT 9999 FEW008 BKN015 BKN035 17/16 Q1016 TEMPO 4000 SHRA

BKN008 FEW030CB=